sensor_id;sensor_type;location;lat;lon;timestamp;pressure;altitude;pressure_sealevel;temperature;humidity
33496;BME280;19836;55.812;37.560;2023-03-14T06:08:46;98826.34;;;3.14;78.98
33496;BME280;19836;55.812;37.560;2023-03-14T06:11:41;98816.44;;;3.27;78.50
33496;BME280;19836;55.812;37.560;2023-03-14T06:28:12;98814.06;;;3.62;76.82
33496;BME280;19836;55.812;37.560;2023-03-14T06:31:04;98797.97;;;3.71;76.27
33496;BME280;19836;55.812;37.560;2023-03-14T06:43:53;98803.28;;;3.71;74.49
33496;BME280;19836;55.812;37.560;2023-03-14T06:46:20;98791.72;;;3.75;74.43
33496;BME280;19836;55.812;37.560;2023-03-14T06:48:47;98807.56;;;3.79;74.40
33496;BME280;19836;55.812;37.560;2023-03-14T06:51:13;98808.28;;;3.86;74.16
33496;BME280;19836;55.812;37.560;2023-03-14T06:53:39;98793.16;;;3.92;74.05
33496;BME280;19836;55.812;37.560;2023-03-14T06:56:07;98801.06;;;3.95;73.86
33496;BME280;19836;55.812;37.560;2023-03-14T06:58:33;98800.06;;;4.01;73.93
33496;BME280;19836;55.812;37.560;2023-03-14T07:01:01;98795.53;;;4.06;73.92
33496;BME280;19836;55.812;37.560;2023-03-14T07:03:33;98794.56;;;4.11;73.58
33496;BME280;19836;55.812;37.560;2023-03-14T07:06:00;98803.34;;;4.13;73.51
33496;BME280;19836;55.812;37.560;2023-03-14T07:08:26;98798.94;;;4.12;72.98
33496;BME280;19836;55.812;37.560;2023-03-14T07:10:52;98805.97;;;4.15;73.39
33496;BME280;19836;55.812;37.560;2023-03-14T07:13:24;98795.31;;;4.18;72.83
33496;BME280;19836;55.812;37.560;2023-03-14T07:16:01;98818.16;;;4.23;72.88
33496;BME280;19836;55.812;37.560;2023-03-14T07:18:28;98803.91;;;4.30;72.64
33496;BME280;19836;55.812;37.560;2023-03-14T07:20:55;98810.06;;;4.31;72.19
33496;BME280;19836;55.812;37.560;2023-03-14T07:23:21;98805.53;;;4.36;72.10
33496;BME280;19836;55.812;37.560;2023-03-14T07:25:51;98817.66;;;4.49;71.93
33496;BME280;19836;55.812;37.560;2023-03-14T07:28:25;98818.44;;;4.52;71.66
33496;BME280;19836;55.812;37.560;2023-03-14T07:31:02;98816.72;;;4.50;71.15
33496;BME280;19836;55.812;37.560;2023-03-14T07:33:38;98821.22;;;4.48;70.70
33496;BME280;19836;55.812;37.560;2023-03-14T07:36:06;98830.00;;;4.50;70.90
33496;BME280;19836;55.812;37.560;2023-03-14T07:38:33;98817.59;;;4.52;70.53
33496;BME280;19836;55.812;37.560;2023-03-14T07:41:28;98812.19;;;4.55;70.50
33496;BME280;19836;55.812;37.560;2023-03-14T07:44:13;98809.50;;;4.58;70.65
33496;BME280;19836;55.812;37.560;2023-03-14T07:46:45;98810.34;;;4.58;70.40
33496;BME280;19836;55.812;37.560;2023-03-14T07:49:14;98811.25;;;4.57;70.31
33496;BME280;19836;55.812;37.560;2023-03-14T07:51:40;98808.47;;;4.63;70.59
33496;BME280;19836;55.812;37.560;2023-03-14T07:54:10;98811.97;;;4.67;70.11
33496;BME280;19836;55.812;37.560;2023-03-14T07:56:39;98792.34;;;4.74;70.18
33496;BME280;19836;55.812;37.560;2023-03-14T07:59:05;98794.94;;;4.77;69.97
33496;BME280;19836;55.812;37.560;2023-03-14T08:01:36;98786.84;;;4.83;69.61
33496;BME280;19836;55.812;37.560;2023-03-14T08:04:02;98798.09;;;4.92;69.28
33496;BME280;19836;55.812;37.560;2023-03-14T08:06:29;98803.25;;;4.98;68.85
33496;BME280;19836;55.812;37.560;2023-03-14T08:08:55;98797.09;;;4.98;68.64
33496;BME280;19836;55.812;37.560;2023-03-14T08:11:21;98812.84;;;5.05;68.71
33496;BME280;19836;55.812;37.560;2023-03-14T08:13:50;98816.28;;;5.09;68.17
33496;BME280;19836;55.812;37.560;2023-03-14T08:16:17;98814.47;;;5.11;68.46
33496;BME280;19836;55.812;37.560;2023-03-14T08:18:45;98815.22;;;5.16;67.96
33496;BME280;19836;55.812;37.560;2023-03-14T08:21:11;98810.81;;;5.16;67.97
33496;BME280;19836;55.812;37.560;2023-03-14T08:23:38;98811.53;;;5.23;68.28
33496;BME280;19836;55.812;37.560;2023-03-14T08:26:05;98828.16;;;5.29;68.28
33496;BME280;19836;55.812;37.560;2023-03-14T08:28:33;98837.19;;;5.24;67.86
33496;BME280;19836;55.812;37.560;2023-03-14T08:31:00;98825.63;;;5.25;68.21
33496;BME280;19836;55.812;37.560;2023-03-14T08:33:28;98825.41;;;5.34;68.48
33496;BME280;19836;55.812;37.560;2023-03-14T08:35:56;98830.78;;;5.31;68.46
33496;BME280;19836;55.812;37.560;2023-03-14T08:38:23;98819.44;;;5.24;68.83
33496;BME280;19836;55.812;37.560;2023-03-14T08:40:55;98815.25;;;5.14;69.01
33496;BME280;19836;55.812;37.560;2023-03-14T08:43:22;98820.66;;;5.11;69.45
33496;BME280;19836;55.812;37.560;2023-03-14T08:45:48;98818.81;;;5.13;69.71
33496;BME280;19836;55.812;37.560;2023-03-14T08:48:14;98804.53;;;5.19;69.81
33496;BME280;19836;55.812;37.560;2023-03-14T08:50:41;98809.75;;;5.23;69.75
33496;BME280;19836;55.812;37.560;2023-03-14T08:53:10;98805.22;;;5.27;69.51
33496;BME280;19836;55.812;37.560;2023-03-14T08:55:38;98818.47;;;5.28;69.39
33496;BME280;19836;55.812;37.560;2023-03-14T08:58:06;98801.59;;;5.31;68.95
33496;BME280;19836;55.812;37.560;2023-03-14T09:00:33;98808.34;;;5.44;68.89
33496;BME280;19836;55.812;37.560;2023-03-14T09:02:59;98814.47;;;5.47;68.58
33496;BME280;19836;55.812;37.560;2023-03-14T09:05:25;98802.00;;;5.49;67.90
33496;BME280;19836;55.812;37.560;2023-03-14T09:07:52;98797.50;;;5.53;67.46
33496;BME280;19836;55.812;37.560;2023-03-14T09:10:19;98785.03;;;5.55;67.09
33496;BME280;19836;55.812;37.560;2023-03-14T09:12:45;98781.38;;;5.60;66.86
33496;BME280;19836;55.812;37.560;2023-03-14T09:15:11;98788.22;;;5.69;66.73
33496;BME280;19836;55.812;37.560;2023-03-14T09:17:37;98791.66;;;5.72;66.16
33496;BME280;19836;55.812;37.560;2023-03-14T09:20:04;98793.34;;;5.76;65.93
33496;BME280;19836;55.812;37.560;2023-03-14T09:22:33;98786.19;;;5.80;65.52
33496;BME280;19836;55.812;37.560;2023-03-14T09:25:05;98798.56;;;5.81;65.36
33496;BME280;19836;55.812;37.560;2023-03-14T09:27:31;98802.06;;;5.83;65.15
33496;BME280;19836;55.812;37.560;2023-03-14T09:29:57;98805.38;;;5.91;65.24
33496;BME280;19836;55.812;37.560;2023-03-14T09:32:24;98807.06;;;5.93;64.42
33496;BME280;19836;55.812;37.560;2023-03-14T09:34:50;98807.97;;;5.94;64.48
33496;BME280;19836;55.812;37.560;2023-03-14T09:37:16;98823.94;;;5.93;64.25
33496;BME280;19836;55.812;37.560;2023-03-14T09:39:42;98807.03;;;5.95;64.02
33496;BME280;19836;55.812;37.560;2023-03-14T09:42:13;98807.94;;;5.96;63.77
33496;BME280;19836;55.812;37.560;2023-03-14T09:44:54;98799.03;;;5.97;63.72
33496;BME280;19836;55.812;37.560;2023-03-14T09:47:21;98810.44;;;6.00;63.20
33496;BME280;19836;55.812;37.560;2023-03-14T09:49:49;98806.09;;;5.97;63.16
33496;BME280;19836;55.812;37.560;2023-03-14T09:52:19;98807.00;;;5.97;63.04
33496;BME280;19836;55.812;37.560;2023-03-14T09:54:50;98815.78;;;6.00;63.36
33496;BME280;19836;55.812;37.560;2023-03-14T09:57:19;98822.75;;;6.04;62.67
33496;BME280;19836;55.812;37.560;2023-03-14T09:59:47;98810.38;;;6.03;62.90
33496;BME280;19836;55.812;37.560;2023-03-14T10:02:26;98802.13;;;6.12;62.86
33496;BME280;19836;55.812;37.560;2023-03-14T10:04:54;98811.69;;;6.19;62.50
33496;BME280;19836;55.812;37.560;2023-03-14T10:07:41;98813.38;;;6.23;62.33
33496;BME280;19836;55.812;37.560;2023-03-14T10:10:21;98804.38;;;6.27;62.39
33496;BME280;19836;55.812;37.560;2023-03-14T10:12:57;98789.47;;;6.22;62.73
33496;BME280;19836;55.812;37.560;2023-03-14T10:15:37;98777.47;;;5.73;64.38
33496;BME280;19836;55.812;37.560;2023-03-14T10:18:30;98792.19;;;5.53;66.28
33496;BME280;19836;55.812;37.560;2023-03-14T10:27:40;98812.16;;;5.34;68.37
33496;BME280;19836;55.812;37.560;2023-03-14T10:42:41;98778.06;;;5.51;68.94
33496;BME280;19836;55.812;37.560;2023-03-14T10:45:43;98772.38;;;5.64;68.86
33496;BME280;19836;55.812;37.560;2023-03-14T10:51:11;98771.03;;;5.83;68.07
33496;BME280;19836;55.812;37.560;2023-03-14T10:56:17;98782.09;;;6.01;67.10
33496;BME280;19836;55.812;37.560;2023-03-14T10:58:56;98782.56;;;6.14;66.15
33496;BME280;19836;55.812;37.560;2023-03-14T11:01:42;98774.03;;;6.34;65.22
33496;BME280;19836;55.812;37.560;2023-03-14T11:09:58;98745.38;;;6.72;63.00
33496;BME280;19836;55.812;37.560;2023-03-14T11:12:45;98752.31;;;6.78;62.78
33496;BME280;19836;55.812;37.560;2023-03-14T11:20:45;98768.59;;;6.95;61.68
33496;BME280;19836;55.812;37.560;2023-03-14T11:23:39;98763.28;;;6.95;61.54
33496;BME280;19836;55.812;37.560;2023-03-14T11:31:47;98758.53;;;7.04;61.01
33496;BME280;19836;55.812;37.560;2023-03-14T11:34:25;98757.56;;;7.07;60.47
33496;BME280;19836;55.812;37.560;2023-03-14T11:37:01;98777.00;;;7.11;60.55
33496;BME280;19836;55.812;37.560;2023-03-14T11:39:41;98777.59;;;7.18;59.81
33496;BME280;19836;55.812;37.560;2023-03-14T11:42:19;98773.00;;;7.23;59.24
33496;BME280;19836;55.812;37.560;2023-03-14T11:44:48;98765.00;;;7.23;59.08
33496;BME280;19836;55.812;37.560;2023-03-14T11:47:25;98761.50;;;7.23;59.26
33496;BME280;19836;55.812;37.560;2023-03-14T11:50:17;98785.41;;;7.24;59.10
33496;BME280;19836;55.812;37.560;2023-03-14T11:53:00;98768.44;;;7.27;58.79
33496;BME280;19836;55.812;37.560;2023-03-14T11:55:32;98772.75;;;7.31;58.41
33496;BME280;19836;55.812;37.560;2023-03-14T11:58:01;98777.88;;;7.37;58.51
33496;BME280;19836;55.812;37.560;2023-03-14T12:00:30;98777.94;;;7.36;58.10
33496;BME280;19836;55.812;37.560;2023-03-14T12:03:06;98776.13;;;7.36;58.44
33496;BME280;19836;55.812;37.560;2023-03-14T12:06:05;98796.22;;;7.46;58.03
33496;BME280;19836;55.812;37.560;2023-03-14T12:08:43;98788.97;;;7.51;58.10
33496;BME280;19836;55.812;37.560;2023-03-14T12:13:38;98819.84;;;7.58;57.85
33496;BME280;19836;55.812;37.560;2023-03-14T12:18:45;98790.41;;;7.61;57.06
33496;BME280;19836;55.812;37.560;2023-03-14T12:21:12;98792.00;;;7.67;57.07
33496;BME280;19836;55.812;37.560;2023-03-14T12:23:44;98784.84;;;7.67;57.20
33496;BME280;19836;55.812;37.560;2023-03-14T12:26:13;98778.63;;;7.68;56.88
33496;BME280;19836;55.812;37.560;2023-03-14T12:28:52;98783.13;;;7.66;56.67
33496;BME280;19836;55.812;37.560;2023-03-14T12:31:36;98795.72;;;7.61;56.62
33496;BME280;19836;55.812;37.560;2023-03-14T12:40:01;98810.25;;;7.53;56.47
33496;BME280;19836;55.812;37.560;2023-03-14T12:42:53;98808.50;;;7.52;56.55
33496;BME280;19836;55.812;37.560;2023-03-14T12:45:32;98797.88;;;7.50;56.52
33496;BME280;19836;55.812;37.560;2023-03-14T12:48:09;98798.09;;;7.44;56.61
33496;BME280;19836;55.812;37.560;2023-03-14T12:56:02;98800.47;;;7.26;57.69
33496;BME280;19836;55.812;37.560;2023-03-14T13:01:01;98797.94;;;7.21;58.90
33496;BME280;19836;55.812;37.560;2023-03-14T13:04:10;98799.81;;;7.19;59.22
33496;BME280;19836;55.812;37.560;2023-03-14T13:06:55;98806.22;;;7.12;59.52
33496;BME280;19836;55.812;37.560;2023-03-14T13:11:56;98821.38;;;7.10;59.60
33496;BME280;19836;55.812;37.560;2023-03-14T13:14:28;98800.00;;;7.13;59.71
33496;BME280;19836;55.812;37.560;2023-03-14T13:16:55;98792.00;;;7.13;59.31
33496;BME280;19836;55.812;37.560;2023-03-14T13:19:26;98784.84;;;7.15;59.45
33496;BME280;19836;55.812;37.560;2023-03-14T13:22:01;98774.13;;;7.17;58.98
33496;BME280;19836;55.812;37.560;2023-03-14T13:24:28;98779.41;;;7.18;58.97
33496;BME280;19836;55.812;37.560;2023-03-14T13:26:56;98784.63;;;7.21;58.43
33496;BME280;19836;55.812;37.560;2023-03-14T13:29:26;98777.53;;;7.22;58.21
33496;BME280;19836;55.812;37.560;2023-03-14T13:31:55;98769.50;;;7.23;58.07
33496;BME280;19836;55.812;37.560;2023-03-14T13:34:26;98777.31;;;7.28;57.75
33496;BME280;19836;55.812;37.560;2023-03-14T13:36:55;98786.06;;;7.31;57.68
33496;BME280;19836;55.812;37.560;2023-03-14T13:39:23;98787.69;;;7.37;56.79
33496;BME280;19836;55.812;37.560;2023-03-14T13:42:25;98795.50;;;7.41;56.83
33496;BME280;19836;55.812;37.560;2023-03-14T14:05:46;98792.97;;;7.38;54.68
33496;BME280;19836;55.812;37.560;2023-03-14T14:49:21;98807.34;;;7.32;53.75
33496;BME280;19836;55.812;37.560;2023-03-14T14:57:22;98822.56;;;7.29;53.71
33496;BME280;19836;55.812;37.560;2023-03-14T14:59:50;98811.91;;;7.29;53.61
33496;BME280;19836;55.812;37.560;2023-03-14T15:02:35;98815.59;;;7.25;53.90
33496;BME280;19836;55.812;37.560;2023-03-14T15:08:01;98807.63;;;7.23;53.48
33496;BME280;19836;55.812;37.560;2023-03-14T15:10:28;98816.56;;;7.22;53.59
33496;BME280;19836;55.812;37.560;2023-03-14T15:12:54;98808.66;;;7.19;53.63
33496;BME280;19836;55.812;37.560;2023-03-14T15:15:21;98811.38;;;7.18;53.97
33496;BME280;19836;55.812;37.560;2023-03-14T15:17:47;98829.06;;;7.21;53.70
33496;BME280;19836;55.812;37.560;2023-03-14T15:20:16;98813.31;;;7.13;53.93
33496;BME280;19836;55.812;37.560;2023-03-14T15:22:43;98827.50;;;7.13;53.97
33496;BME280;19836;55.812;37.560;2023-03-14T15:25:28;98823.09;;;7.13;53.99
33496;BME280;19836;55.812;37.560;2023-03-14T15:27:54;98827.59;;;7.11;53.91
33496;BME280;19836;55.812;37.560;2023-03-14T15:30:23;98826.72;;;7.10;53.92
33496;BME280;19836;55.812;37.560;2023-03-14T15:37:28;98826.00;;;7.05;54.06
33496;BME280;19836;55.812;37.560;2023-03-14T15:39:54;98827.75;;;7.04;53.97
33496;BME280;19836;55.812;37.560;2023-03-14T15:42:23;98815.34;;;7.05;54.03
33496;BME280;19836;55.812;37.560;2023-03-14T15:44:49;98824.25;;;7.04;54.05
33496;BME280;19836;55.812;37.560;2023-03-14T15:47:15;98820.69;;;7.03;54.07
33496;BME280;19836;55.812;37.560;2023-03-14T15:49:41;98833.19;;;7.02;54.08
33496;BME280;19836;55.812;37.560;2023-03-14T15:52:07;98832.31;;;7.01;54.14
33496;BME280;19836;55.812;37.560;2023-03-14T15:54:34;98833.19;;;7.02;54.09
33496;BME280;19836;55.812;37.560;2023-03-14T15:57:01;98835.03;;;6.99;54.09
33496;BME280;19836;55.812;37.560;2023-03-14T15:59:27;98840.34;;;6.99;54.31
33496;BME280;19836;55.812;37.560;2023-03-14T16:01:53;98841.16;;;7.03;54.24
33496;BME280;19836;55.812;37.560;2023-03-14T16:04:18;98850.03;;;7.02;54.12
33496;BME280;19836;55.812;37.560;2023-03-14T16:06:44;98826.06;;;7.02;54.09
33496;BME280;19836;55.812;37.560;2023-03-14T16:09:11;98841.22;;;7.00;53.82
33496;BME280;19836;55.812;37.560;2023-03-14T16:11:37;98845.75;;;6.98;53.75
33496;BME280;19836;55.812;37.560;2023-03-14T16:14:03;98853.81;;;6.95;53.63
33496;BME280;19836;55.812;37.560;2023-03-14T16:16:29;98843.34;;;6.89;53.96
33496;BME280;19836;55.812;37.560;2023-03-14T16:18:55;98838.09;;;6.86;53.94
33496;BME280;19836;55.812;37.560;2023-03-14T16:21:22;98842.59;;;6.86;54.15
33496;BME280;19836;55.812;37.560;2023-03-14T16:23:48;98850.41;;;6.90;53.90
33496;BME280;19836;55.812;37.560;2023-03-14T16:26:20;98865.56;;;6.88;53.62
33496;BME280;19836;55.812;37.560;2023-03-14T16:28:47;98872.63;;;6.89;53.77
33496;BME280;19836;55.812;37.560;2023-03-14T16:31:19;98880.69;;;6.86;53.71
33496;BME280;19836;55.812;37.560;2023-03-14T16:33:49;98897.38;;;6.93;53.71
33496;BME280;19836;55.812;37.560;2023-03-14T16:36:16;98892.13;;;6.89;53.68
33496;BME280;19836;55.812;37.560;2023-03-14T16:38:43;98900.22;;;6.87;53.38
33496;BME280;19836;55.812;37.560;2023-03-14T16:44:04;98892.31;;;6.83;53.52
33496;BME280;19836;55.812;37.560;2023-03-14T16:50:14;98886.19;;;6.82;53.32
33496;BME280;19836;55.812;37.560;2023-03-14T16:52:40;98893.38;;;6.78;53.54
33496;BME280;19836;55.812;37.560;2023-03-14T16:55:13;98894.38;;;6.74;53.26
33496;BME280;19836;55.812;37.560;2023-03-14T16:57:44;98891.97;;;6.65;53.54
33496;BME280;19836;55.812;37.560;2023-03-14T17:00:12;98907.19;;;6.60;53.42
33496;BME280;19836;55.812;37.560;2023-03-14T17:02:42;98892.16;;;6.59;53.40
33496;BME280;19836;55.812;37.560;2023-03-14T17:05:14;98901.06;;;6.58;53.73
33496;BME280;19836;55.812;37.560;2023-03-14T17:07:40;98885.09;;;6.58;53.26
33496;BME280;19836;55.812;37.560;2023-03-14T17:10:15;98883.25;;;6.60;53.83
33496;BME280;19836;55.812;37.560;2023-03-14T17:25:19;98886.13;;;6.53;53.68
33496;BME280;19836;55.812;37.560;2023-03-14T17:27:47;98903.22;;;6.44;53.71
33496;BME280;19836;55.812;37.560;2023-03-14T17:40:07;98889.16;;;6.39;53.83
33496;BME280;19836;55.812;37.560;2023-03-14T17:42:50;98892.88;;;6.32;53.99
33496;BME280;19836;55.812;37.560;2023-03-14T17:45:40;98897.34;;;6.32;53.90
33496;BME280;19836;55.812;37.560;2023-03-14T17:48:10;98902.53;;;6.36;53.98
33496;BME280;19836;55.812;37.560;2023-03-14T17:50:38;98900.66;;;6.39;53.95
33496;BME280;19836;55.812;37.560;2023-03-14T17:53:08;98903.28;;;6.41;54.05
33496;BME280;19836;55.812;37.560;2023-03-14T17:55:36;98898.72;;;6.46;53.48
33496;BME280;19836;55.812;37.560;2023-03-14T17:58:07;98893.34;;;6.47;53.56
33496;BME280;19836;55.812;37.560;2023-03-14T18:00:38;98891.63;;;6.47;53.50
33496;BME280;19836;55.812;37.560;2023-03-14T18:03:04;98896.06;;;6.46;53.66
33496;BME280;19836;55.812;37.560;2023-03-14T18:13:51;98898.50;;;6.53;53.03
33496;BME280;19836;55.812;37.560;2023-03-14T18:20:06;98907.59;;;6.47;53.20
33496;BME280;19836;55.812;37.560;2023-03-14T18:23:38;98924.31;;;6.50;53.56
33496;BME280;19836;55.812;37.560;2023-03-14T18:26:52;98906.53;;;6.52;52.87
33496;BME280;19836;55.812;37.560;2023-03-14T18:36:11;98912.00;;;6.46;52.71
33496;BME280;19836;55.812;37.560;2023-03-14T18:42:43;98911.16;;;6.46;53.02
33496;BME280;19836;55.812;37.560;2023-03-14T18:45:10;98898.75;;;6.44;52.93
33496;BME280;19836;55.812;37.560;2023-03-14T18:47:36;98903.28;;;6.41;52.87
33496;BME280;19836;55.812;37.560;2023-03-14T18:50:04;98905.94;;;6.41;52.84
33496;BME280;19836;55.812;37.560;2023-03-14T18:53:02;98911.41;;;6.37;52.75
33496;BME280;19836;55.812;37.560;2023-03-14T18:55:52;98897.13;;;6.41;52.86
33496;BME280;19836;55.812;37.560;2023-03-14T18:58:42;98905.88;;;6.44;52.40
33496;BME280;19836;55.812;37.560;2023-03-14T19:01:25;98905.03;;;6.42;52.04
33496;BME280;19836;55.812;37.560;2023-03-14T19:04:02;98908.59;;;6.41;52.36
33496;BME280;19836;55.812;37.560;2023-03-14T19:06:28;98912.19;;;6.40;52.03
33496;BME280;19836;55.812;37.560;2023-03-14T19:09:00;98916.69;;;6.38;52.49
33496;BME280;19836;55.812;37.560;2023-03-14T19:11:27;98906.09;;;6.37;52.46
33496;BME280;19836;55.812;37.560;2023-03-14T19:13:56;98902.47;;;6.39;52.46
33496;BME280;19836;55.812;37.560;2023-03-14T19:16:24;98918.44;;;6.39;52.60
33496;BME280;19836;55.812;37.560;2023-03-14T19:18:53;98914.84;;;6.40;52.13
33496;BME280;19836;55.812;37.560;2023-03-14T19:21:30;98926.41;;;6.39;52.01
33496;BME280;19836;55.812;37.560;2023-03-14T19:23:56;98929.88;;;6.41;51.97
33496;BME280;19836;55.812;37.560;2023-03-14T19:26:23;98934.25;;;6.43;51.74
33496;BME280;19836;55.812;37.560;2023-03-14T19:28:50;98938.56;;;6.49;51.79
33496;BME280;19836;55.812;37.560;2023-03-14T19:31:20;98936.75;;;6.49;51.34
33496;BME280;19836;55.812;37.560;2023-03-14T19:33:53;98933.09;;;6.53;51.15
33496;BME280;19836;55.812;37.560;2023-03-14T19:36:23;98931.38;;;6.51;50.90
33496;BME280;19836;55.812;37.560;2023-03-14T19:38:53;98946.53;;;6.49;51.22
33496;BME280;19836;55.812;37.560;2023-03-14T19:41:40;98933.09;;;6.53;50.78
33496;BME280;19836;55.812;37.560;2023-03-14T19:44:06;98941.22;;;6.49;50.91
33496;BME280;19836;55.812;37.560;2023-03-14T19:50:27;98947.59;;;6.42;51.15
33496;BME280;19836;55.812;37.560;2023-03-14T19:52:55;98945.03;;;6.39;50.72
33496;BME280;19836;55.812;37.560;2023-03-14T19:55:23;98936.38;;;6.31;50.53
33496;BME280;19836;55.812;37.560;2023-03-14T19:57:52;98938.97;;;6.34;50.91
33496;BME280;19836;55.812;37.560;2023-03-14T20:00:22;98938.25;;;6.28;50.82
33496;BME280;19836;55.812;37.560;2023-03-14T20:02:49;98949.88;;;6.23;50.60
33496;BME280;19836;55.812;37.560;2023-03-14T20:05:22;98947.31;;;6.21;50.93
33496;BME280;19836;55.812;37.560;2023-03-14T20:07:49;98942.66;;;6.27;50.35
33496;BME280;19836;55.812;37.560;2023-03-14T20:10:20;98932.03;;;6.27;50.27
33496;BME280;19836;55.812;37.560;2023-03-14T20:12:52;98933.81;;;6.28;50.45
33496;BME280;19836;55.812;37.560;2023-03-14T20:15:19;98941.69;;;6.31;50.42
33496;BME280;19836;55.812;37.560;2023-03-14T20:17:47;98939.94;;;6.30;50.08
33496;BME280;19836;55.812;37.560;2023-03-14T20:20:14;98949.59;;;6.34;49.85
33496;BME280;19836;55.812;37.560;2023-03-14T20:22:41;98936.28;;;6.34;49.73
33496;BME280;19836;55.812;37.560;2023-03-14T20:25:12;98954.25;;;6.24;49.79
33496;BME280;19836;55.812;37.560;2023-03-14T20:27:39;98952.63;;;6.21;49.65
33496;BME280;19836;55.812;37.560;2023-03-14T20:30:09;98928.72;;;6.19;50.04
33496;BME280;19836;55.812;37.560;2023-03-14T20:32:41;98949.22;;;6.14;49.90
33496;BME280;19836;55.812;37.560;2023-03-14T20:35:12;98949.22;;;6.14;49.84
33496;BME280;19836;55.812;37.560;2023-03-14T20:37:39;98943.03;;;6.13;49.66
33496;BME280;19836;55.812;37.560;2023-03-14T20:40:06;98960.88;;;6.08;49.95
33496;BME280;19836;55.812;37.560;2023-03-14T20:42:36;98957.50;;;6.02;50.11
33496;BME280;19836;55.812;37.560;2023-03-14T20:45:04;98938.84;;;6.03;50.21
33496;BME280;19836;55.812;37.560;2023-03-14T20:47:38;98940.47;;;6.11;49.69
33496;BME280;19836;55.812;37.560;2023-03-14T20:50:06;98956.25;;;6.17;49.88
33496;BME280;19836;55.812;37.560;2023-03-14T20:52:33;98950.84;;;6.19;49.69
33496;BME280;19836;55.812;37.560;2023-03-14T20:54:59;98962.41;;;6.18;49.40
33496;BME280;19836;55.812;37.560;2023-03-14T20:57:26;98951.72;;;6.20;49.66
33496;BME280;19836;55.812;37.560;2023-03-14T20:59:56;98952.75;;;6.14;49.54
33496;BME280;19836;55.812;37.560;2023-03-14T21:02:22;98947.50;;;6.13;49.68
33496;BME280;19836;55.812;37.560;2023-03-14T21:04:49;98956.22;;;6.18;49.72
33496;BME280;19836;55.812;37.560;2023-03-14T21:07:18;98962.41;;;6.18;49.60
33496;BME280;19836;55.812;37.560;2023-03-14T21:09:45;98966.88;;;6.18;49.51
33496;BME280;19836;55.812;37.560;2023-03-14T21:12:12;98975.78;;;6.16;49.80
33496;BME280;19836;55.812;37.560;2023-03-14T21:14:38;98967.75;;;6.17;49.80
33496;BME280;19836;55.812;37.560;2023-03-14T21:17:07;98956.03;;;6.26;49.60
33496;BME280;19836;55.812;37.560;2023-03-14T21:19:33;98962.16;;;6.29;49.25
33496;BME280;19836;55.812;37.560;2023-03-14T21:22:02;98953.19;;;6.33;48.92
33496;BME280;19836;55.812;37.560;2023-03-14T21:24:29;98977.91;;;6.37;48.95
33496;BME280;19836;55.812;37.560;2023-03-14T21:26:56;98955.66;;;6.39;48.86
33496;BME280;19836;55.812;37.560;2023-03-14T21:29:23;98967.16;;;6.39;48.90
33496;BME280;19836;55.812;37.560;2023-03-14T21:31:50;98960.06;;;6.40;48.62
33496;BME280;19836;55.812;37.560;2023-03-14T21:34:17;98960.06;;;6.40;48.64
33496;BME280;19836;55.812;37.560;2023-03-14T21:36:48;98965.41;;;6.40;48.73
33496;BME280;19836;55.812;37.560;2023-03-14T21:39:14;98968.03;;;6.42;48.45
33496;BME280;19836;55.812;37.560;2023-03-14T21:41:41;98966.19;;;6.43;48.29
33496;BME280;19836;55.812;37.560;2023-03-14T21:44:07;98960.13;;;6.37;48.34
33496;BME280;19836;55.812;37.560;2023-03-14T21:46:34;98961.03;;;6.38;48.31
33496;BME280;19836;55.812;37.560;2023-03-14T21:49:03;98961.97;;;6.35;48.52
33496;BME280;19836;55.812;37.560;2023-03-14T21:51:30;98965.63;;;6.31;48.42
33496;BME280;19836;55.812;37.560;2023-03-14T21:54:00;98957.38;;;6.42;48.31
33496;BME280;19836;55.812;37.560;2023-03-14T21:56:27;98962.72;;;6.40;48.32
33496;BME280;19836;55.812;37.560;2023-03-14T21:58:54;98969.91;;;6.38;48.41
33496;BME280;19836;55.812;37.560;2023-03-14T22:01:24;98959.25;;;6.38;48.41
33496;BME280;19836;55.812;37.560;2023-03-14T22:03:51;98964.63;;;6.35;48.31
33496;BME280;19836;55.812;37.560;2023-03-14T22:06:18;98969.13;;;6.33;48.33
33496;BME280;19836;55.812;37.560;2023-03-14T22:08:45;98954.81;;;6.37;48.10
33496;BME280;19836;55.812;37.560;2023-03-14T22:11:11;98965.47;;;6.37;48.15
33496;BME280;19836;55.812;37.560;2023-03-14T22:13:38;98962.03;;;6.32;48.43
33496;BME280;19836;55.812;37.560;2023-03-14T22:16:10;98959.28;;;6.37;48.33
33496;BME280;19836;55.812;37.560;2023-03-14T22:18:36;98961.91;;;6.38;48.22
33496;BME280;19836;55.812;37.560;2023-03-14T22:21:04;98954.72;;;6.42;48.33
33496;BME280;19836;55.812;37.560;2023-03-14T22:23:56;98967.31;;;6.35;48.44
33496;BME280;19836;55.812;37.560;2023-03-14T22:26:22;98966.38;;;6.36;48.43
33496;BME280;19836;55.812;37.560;2023-03-14T22:28:50;98956.66;;;6.35;48.47
33496;BME280;19836;55.812;37.560;2023-03-14T22:31:17;98968.19;;;6.36;48.51
33496;BME280;19836;55.812;37.560;2023-03-14T22:33:43;98969.06;;;6.34;48.53
33496;BME280;19836;55.812;37.560;2023-03-14T22:36:10;98970.91;;;6.32;48.44
33496;BME280;19836;55.812;37.560;2023-03-14T22:38:36;98961.16;;;6.33;48.40
33496;BME280;19836;55.812;37.560;2023-03-14T22:41:03;98975.44;;;6.29;48.39
33496;BME280;19836;55.812;37.560;2023-03-14T22:43:30;98958.56;;;6.30;48.58
33496;BME280;19836;55.812;37.560;2023-03-14T22:46:02;98969.03;;;6.36;48.47
33496;BME280;19836;55.812;37.560;2023-03-14T22:48:29;98961.03;;;6.38;48.39
33496;BME280;19836;55.812;37.560;2023-03-14T22:50:56;98968.06;;;6.40;48.34
33496;BME280;19836;55.812;37.560;2023-03-14T22:53:24;98963.66;;;6.39;48.41
33496;BME280;19836;55.812;37.560;2023-03-14T22:56:00;98963.72;;;6.36;48.27
33496;BME280;19836;55.812;37.560;2023-03-14T22:58:27;98958.41;;;6.36;48.56
33496;BME280;19836;55.812;37.560;2023-03-14T23:00:54;98965.44;;;6.38;48.08
33496;BME280;19836;55.812;37.560;2023-03-14T23:03:21;98961.16;;;6.33;48.31
33496;BME280;19836;55.812;37.560;2023-03-14T23:05:47;98974.53;;;6.30;48.21